Cedar Vale, Kansas
Current Conditions -  °F | °C
As of 10:02 AM on Saturday 22 Nov 2014 (Local Time) from KWLD Reporting Station
Overcast Overcast  
Wind Chill: 58°   Ceiling: 1000
Heat Index: 58°   Visibility: 10mi
Dew Point: 57°   Wind: 15mph
Humidity: 97%   Direction: 180°S
Pressure: 29.95"   Gusts: 22mph
Location:  37.1°N, 96.5°W
Report Text: KWLD 221602Z AUTO 18013G19KT 10SM BKN010 OVC013 14/14 A2995 RMK AO2 CIG 006V011 T01440139
Loading
Personal Weather Stations






























Interactive Weather Map New forecast layout! Learn more

10-Day Weather Forecast

Advertisements
Track Severe Weather on mobile